Dades meteomassalio
Diari Summary for Juliol 20, 2017 Units:  English    Metric   Both
« Previous Day
Next Day »
Diari Semanal Mensual Anual Personalitzat
  Maxima: Minima: Mijana:
Temperatura: TemperatureC °F 20.1 °F 25.7 °F
Rosada: DewpointC °F 14.4 °F 16.9 °F
Humitat: Humidity % 34 % 60 %
Velocitat del vent: WindSpeedKMH mph 0.0 mph 8.8 mph
Racha vent: WindSpeedGustKMH mph - -
Vent:- - SSW
Pressio: PressurehPa in 1008.4 in -
Pluja: 0.0 in    
Historical Graphs
 
 
Tabular Data for Juliol 20, 2017
Time Temperature Dew Point Pressure Wind Wind Speed Wind Gust Humidity Rainfall Rate (Hourly) solar Conditions
TemperatureC °F DewpointC °F PressurehPa in Calm     Humidity % HourlyPrecipMM in SolarRadiationWatts/m^2 W/m2 Conditions
00:01 24.7 °F 18.4 °F 1009.0 in Calm     68 % 0.0 in 0.0 W/m2 CLR
00:06 24.4 °F 18.4 °F 1009.0 in Calm     69 % 0.0 in 0.0 W/m2 CLR
00:11 24.3 °F 18.3 °F 1009.0 in Calm     69 % 0.0 in 0.0 W/m2 CLR
00:16 24.3 °F 18.3 °F 1009.0 in Calm     69 % 0.0 in 0.0 W/m2 CLR
00:21 24.4 °F 18.3 °F 1009.0 in Calm     69 % 0.0 in 0.0 W/m2 CLR
00:26 24.3 °F 18.3 °F 1009.0 in Calm     69 % 0.0 in 0.0 W/m2 CLR
00:31 24.3 °F 18.3 °F 1009.0 in Calm     69 % 0.0 in 0.0 W/m2 CLR
00:36 24.3 °F 18.3 °F 1009.4 in Calm     69 % 0.0 in 0.0 W/m2 CLR
00:41 24.3 °F 18.2 °F 1009.4 in Calm     69 % 0.0 in 0.0 W/m2 CLR
00:46 24.2 °F 18.4 °F 1009.4 in Calm     70 % 0.0 in 0.0 W/m2 CLR
00:51 24.1 °F 18.4 °F 1009.4 in Calm     71 % 0.0 in 0.0 W/m2 CLR
00:56 23.9 °F 18.8 °F 1009.4 in Calm     73 % 0.0 in 0.0 W/m2 CLR
01:01 23.7 °F 18.6 °F 1009.4 in Calm     73 % 0.0 in 0.0 W/m2 CLR
01:06 23.6 °F 18.7 °F 1009.4 in Calm     74 % 0.0 in 0.0 W/m2 CLR
01:11 23.5 °F 18.6 °F 1009.4 in Calm     74 % 0.0 in 0.0 W/m2 CLR
01:16 23.3 °F 18.2 °F 1009.7 in Calm     73 % 0.0 in 0.0 W/m2 CLR
01:21 23.2 °F 18.3 °F 1009.7 in Calm     74 % 0.0 in 0.0 W/m2 CLR
01:26 23.2 °F 18.1 °F 1009.7 in Calm     73 % 0.0 in 0.0 W/m2 CLR
01:31 23.1 °F 18.2 °F 1009.7 in Calm     74 % 0.0 in 0.0 W/m2 CLR
01:36 22.9 °F 18.1 °F 1009.7 in Calm     74 % 0.0 in 0.0 W/m2 CLR
01:37 22.9 °F 18.3 °F 1009.7 in Calm     75 % 0.0 in 0.0 W/m2 CLR
01:42 22.9 °F 18.2 °F 1009.7 in Calm     75 % 0.0 in 0.0 W/m2 CLR
01:47 22.9 °F 18.1 °F 1009.7 in Calm     74 % 0.0 in 0.0 W/m2 CLR
01:52 23.4 °F 18.7 °F 1010.0 in WSW 14.8 mph 14.8 mph 75 % 0.0 in 0.0 W/m2 CLR
01:57 23.6 °F 19.1 °F 1010.0 in WSW 11.1 mph 11.1 mph 76 % 0.0 in 0.0 W/m2 CLR
02:02 23.6 °F 19.1 °F 1010.0 in WSW 11.3 mph 11.3 mph 76 % 0.0 in 0.0 W/m2 CLR
02:07 23.5 °F 19.0 °F 1010.0 in WSW 9.3 mph 9.3 mph 76 % 0.0 in 0.0 W/m2 CLR
02:12 23.4 °F 19.1 °F 1010.0 in West 14.8 mph 14.8 mph 77 % 0.0 in 0.0 W/m2 CLR
02:18 23.3 °F 19.0 °F 1010.0 in West 20.4 mph 20.4 mph 77 % 0.0 in 0.0 W/m2 CLR
02:23 23.2 °F 18.9 °F 1010.0 in West 16.1 mph 16.1 mph 77 % 0.0 in 0.0 W/m2 CLR
02:28 23.1 °F 18.8 °F 1010.4 in WNW 14.8 mph 14.8 mph 77 % 0.0 in 0.0 W/m2 CLR
02:33 23.1 °F 18.8 °F 1010.4 in WSW 7.4 mph 7.4 mph 77 % 0.0 in 0.0 W/m2 CLR
02:38 23.1 °F 18.8 °F 1010.4 in SW 3.2 mph 5.3 mph 77 % 0.0 in 0.0 W/m2 CLR
02:43 23.1 °F 18.8 °F 1010.4 in SW 5.6 mph   77 % 0.0 in 0.0 W/m2 CLR
02:48 23.0 °F 18.7 °F 1010.4 in SW 11.3 mph 11.3 mph 77 % 0.0 in 0.0 W/m2 CLR
02:53 22.8 °F 18.6 °F 1010.4 in WSW 13.0 mph 13.0 mph 77 % 0.0 in 0.0 W/m2 CLR
02:58 22.8 °F 18.7 °F 1010.4 in SW 11.1 mph 11.1 mph 78 % 0.0 in 0.0 W/m2 CLR
03:03 22.7 °F 18.6 °F 1010.4 in West 16.7 mph 16.7 mph 78 % 0.0 in 0.0 W/m2 CLR
03:08 22.6 °F 18.6 °F 1010.4 in WNW 20.4 mph 20.4 mph 78 % 0.0 in 0.0 W/m2 CLR
03:13 22.5 °F 18.4 °F 1010.4 in WNW 22.5 mph 22.5 mph 78 % 0.0 in 0.0 W/m2 CLR
03:18 22.4 °F 18.4 °F 1010.4 in West 18.5 mph 18.5 mph 78 % 0.0 in 0.0 W/m2 CLR
03:23 22.3 °F 18.3 °F 1010.4 in West 22.2 mph 22.2 mph 78 % 0.0 in 0.0 W/m2 CLR
03:28 22.3 °F 18.3 °F 1010.7 in West 25.9 mph 25.9 mph 78 % 0.0 in 0.0 W/m2 CLR
03:33 22.1 °F 18.1 °F 1010.7 in West 14.8 mph 14.8 mph 78 % 0.0 in 0.0 W/m2 CLR
03:38 22.1 °F 18.1 °F 1010.7 in West 5.6 mph 5.6 mph 78 % 0.0 in 0.0 W/m2 CLR
03:43 21.9 °F 17.7 °F 1010.7 in West 9.3 mph 9.3 mph 77 % 0.0 in 0.0 W/m2 CLR
03:48 21.8 °F 17.6 °F 1010.7 in Calm     77 % 0.0 in 0.0 W/m2 CLR
03:53 21.8 °F 17.3 °F 1010.7 in NW 18.5 mph 18.5 mph 76 % 0.0 in 0.0 W/m2 CLR
03:58 21.7 °F 17.3 °F 1010.7 in Calm     76 % 0.0 in 0.0 W/m2 CLR
04:03 21.7 °F 17.1 °F 1011.1 in NW 16.7 mph 16.7 mph 75 % 0.0 in 0.0 W/m2 CLR
04:08 21.7 °F 17.1 °F 1011.1 in Calm     75 % 0.0 in 0.0 W/m2 CLR
04:13 21.7 °F 17.1 °F 1011.1 in Calm     75 % 0.0 in 0.0 W/m2 CLR
04:18 21.7 °F 17.1 °F 1011.1 in Calm     75 % 0.0 in 0.0 W/m2 CLR
04:23 21.7 °F 17.1 °F 1011.1 in Calm     75 % 0.0 in 0.0 W/m2 CLR
04:28 21.7 °F 16.8 °F 1011.1 in West 11.1 mph 11.1 mph 74 % 0.0 in 0.0 W/m2 CLR
04:33 21.6 °F 16.8 °F 1011.1 in NW 5.6 mph 5.6 mph 74 % 0.0 in 0.0 W/m2 CLR
04:38 21.6 °F 16.7 °F 1011.1 in WSW 1.9 mph 1.9 mph 74 % 0.0 in 0.0 W/m2 CLR
04:43 21.5 °F 16.7 °F 1011.1 in WSW 5.6 mph 5.6 mph 74 % 0.0 in 0.0 W/m2 CLR
04:48 21.5 °F 16.7 °F 1011.1 in West 1.9 mph   74 % 0.0 in 0.0 W/m2 CLR
04:53 21.4 °F 16.8 °F 1011.1 in WNW 3.7 mph 3.7 mph 75 % 0.0 in 0.0 W/m2 CLR
04:58 21.4 °F 16.8 °F 1011.4 in Calm     75 % 0.0 in 0.0 W/m2 CLR
05:03 21.3 °F 16.7 °F 1011.1 in WSW 7.4 mph 7.4 mph 75 % 0.0 in 0.0 W/m2 CLR
05:08 21.2 °F 16.6 °F 1011.4 in WSW 9.3 mph 9.3 mph 75 % 0.0 in 0.0 W/m2 CLR
05:13 21.2 °F 16.6 °F 1011.4 in Calm     75 % 0.0 in 0.0 W/m2 CLR
05:18 21.1 °F 16.4 °F 1011.1 in WSW 11.1 mph 11.1 mph 75 % 0.0 in 0.0 W/m2 CLR
05:23 20.9 °F 16.3 °F 1011.4 in WNW 14.8 mph 14.8 mph 75 % 0.0 in 0.0 W/m2 CLR
05:28 20.8 °F 16.0 °F 1011.4 in WNW 14.8 mph 14.8 mph 74 % 0.0 in 0.0 W/m2 CLR
05:33 20.8 °F 16.0 °F 1011.4 in WNW 14.8 mph 14.8 mph 74 % 0.0 in 0.0 W/m2 CLR
05:38 20.7 °F 15.9 °F 1011.4 in WNW 11.3 mph 11.3 mph 74 % 0.0 in 0.0 W/m2 CLR
05:43 20.7 °F 15.7 °F 1011.4 in West 14.8 mph 14.8 mph 73 % 0.0 in 0.0 W/m2 CLR
05:48 20.7 °F 15.9 °F 1011.4 in West 14.8 mph 14.8 mph 74 % 0.0 in 0.0 W/m2 CLR
05:53 20.6 °F 15.6 °F 1011.4 in West 9.7 mph 9.7 mph 73 % 0.0 in 0.0 W/m2 CLR
05:58 20.6 °F 15.6 °F 1011.7 in West 9.3 mph 9.3 mph 73 % 0.0 in 0.0 W/m2 CLR
06:03 20.5 °F 15.5 °F 1011.4 in West 13.0 mph 13.0 mph 73 % 0.0 in 0.0 W/m2 CLR
06:04 20.5 °F 15.5 °F 1011.4 in West 5.6 mph 5.6 mph 73 % 0.0 in 0.0 W/m2 CLR
06:09 20.4 °F 15.2 °F 1011.7 in WNW 9.3 mph 9.3 mph 72 % 0.0 in 0.0 W/m2 CLR
06:14 20.4 °F 15.2 °F 1011.7 in WNW 1.9 mph   72 % 0.0 in 0.0 W/m2 CLR
06:19 20.3 °F 15.1 °F 1011.7 in West 7.4 mph 7.4 mph 72 % 0.0 in 0.0 W/m2 CLR
06:24 20.3 °F 15.1 °F 1011.7 in WNW 13.0 mph 13.0 mph 72 % 0.0 in 0.0 W/m2 CLR
06:26 20.3 °F 15.1 °F 1011.7 in West 7.4 mph 7.4 mph 72 % 0.0 in 0.0 W/m2 CLR
06:31 20.3 °F 15.1 °F 1012.1 in West 3.7 mph   72 % 0.0 in 0.0 W/m2 CLR
06:36 20.3 °F 15.1 °F 1012.1 in Calm     72 % 0.0 in 0.0 W/m2 OVC
06:41 20.2 °F 15.0 °F 1012.1 in West 6.4 mph 6.4 mph 72 % 0.0 in 0.0 W/m2 OVC
06:46 20.2 °F 14.9 °F 1012.4 in Calm     72 % 0.0 in 0.0 W/m2 OVC
06:51 20.1 °F 14.9 °F 1012.4 in West 1.9 mph 1.9 mph 72 % 0.0 in 5.0 W/m2 OVC
06:56 20.2 °F 14.9 °F 1012.4 in WSW 7.4 mph   72 % 0.0 in 9.0 W/m2 BKN
07:01 20.1 °F 14.9 °F 1012.4 in West 5.6 mph 5.6 mph 72 % 0.0 in 12.0 W/m2 BKN
07:06 20.2 °F 14.9 °F 1012.4 in Calm     72 % 0.0 in 14.0 W/m2 BKN
07:11 20.1 °F 14.9 °F 1012.4 in Calm     72 % 0.0 in 19.0 W/m2 BKN
07:16 20.1 °F 14.9 °F 1012.4 in Calm     72 % 0.0 in 21.0 W/m2 BKN
07:21 20.1 °F 14.9 °F 1012.4 in Calm     72 % 0.0 in 25.0 W/m2 BKN
07:26 20.1 °F 14.9 °F 1012.8 in WNW 7.4 mph 7.4 mph 72 % 0.0 in 25.0 W/m2 BKN
07:31 20.1 °F 14.7 °F 1012.8 in Calm     71 % 0.0 in 28.0 W/m2 BKN
07:37 20.1 °F 14.7 °F 1012.8 in Calm     71 % 0.0 in 30.0 W/m2 BKN
07:42 20.1 °F 14.6 °F 1012.8 in Calm     71 % 0.0 in 32.0 W/m2 BKN
07:47 20.1 °F 14.6 °F 1012.8 in Calm     71 % 0.0 in 69.0 W/m2 BKN
07:52 20.2 °F 14.7 °F 1012.8 in WSW 13.0 mph 13.0 mph 71 % 0.0 in 58.0 W/m2 SCT
07:57 20.3 °F 14.9 °F 1012.8 in WSW 9.3 mph 9.3 mph 71 % 0.0 in 113.0 W/m2 FEW
08:02 20.5 °F 14.8 °F 1012.8 in West 7.4 mph 7.4 mph 70 % 0.0 in 125.0 W/m2 CLR
08:07 20.7 °F 15.0 °F 1013.1 in West 5.6 mph 5.6 mph 70 % 0.0 in 144.0 W/m2 CLR
08:12 20.8 °F 14.9 °F 1013.1 in WNW 8.0 mph 8.0 mph 69 % 0.0 in 162.0 W/m2 CLR
08:17 20.9 °F 14.8 °F 1013.1 in NW 9.7 mph 9.7 mph 68 % 0.0 in 176.0 W/m2 CLR
08:22 21.0 °F 14.9 °F 1013.1 in WNW 19.3 mph 19.3 mph 68 % 0.0 in 197.0 W/m2 CLR
08:27 21.1 °F 14.9 °F 1013.1 in West 16.1 mph 16.1 mph 68 % 0.0 in 207.0 W/m2 CLR
08:32 21.1 °F 15.2 °F 1013.1 in NW 9.7 mph 9.7 mph 69 % 0.0 in 241.0 W/m2 CLR
08:37 21.3 °F 15.1 °F 1013.1 in West 24.1 mph 24.1 mph 68 % 0.0 in 274.0 W/m2 CLR
08:42 21.4 °F 15.2 °F 1013.1 in WNW 18.5 mph 18.5 mph 68 % 0.0 in 283.0 W/m2 CLR
08:47 21.5 °F 15.3 °F 1013.1 in WNW 29.6 mph 29.6 mph 68 % 0.0 in 308.0 W/m2 CLR
08:52 21.5 °F 15.1 °F 1013.1 in NW 22.2 mph 22.2 mph 67 % 0.0 in 323.0 W/m2 CLR
08:57 21.4 °F 15.0 °F 1013.1 in NW 25.9 mph 25.9 mph 67 % 0.0 in 330.0 W/m2 CLR
09:02 21.3 °F 15.2 °F 1013.1 in WNW 18.5 mph 18.5 mph 68 % 0.0 in 174.0 W/m2 CLR
09:07 21.5 °F 15.3 °F 1013.1 in WNW 22.2 mph 22.2 mph 68 % 0.0 in 327.0 W/m2 CLR
09:12 21.6 °F 15.2 °F 1013.1 in WNW 18.5 mph 18.5 mph 67 % 0.0 in 269.0 W/m2 CLR
09:17 21.6 °F 15.2 °F 1013.4 in NW 9.3 mph 9.3 mph 67 % 0.0 in 367.0 W/m2 CLR
09:22 21.8 °F 15.2 °F 1013.4 in West 16.1 mph 16.1 mph 66 % 0.0 in 385.0 W/m2 CLR
09:27 21.8 °F 15.2 °F 1013.4 in West 18.5 mph 18.5 mph 66 % 0.0 in 367.0 W/m2 CLR
09:32 21.9 °F 15.3 °F 1013.4 in WNW 11.1 mph 11.1 mph 66 % 0.0 in 415.0 W/m2 CLR
09:37 22.1 °F 15.2 °F 1013.4 in WSW 14.8 mph 14.8 mph 65 % 0.0 in 427.0 W/m2 CLR
09:42 22.3 °F 15.7 °F 1013.4 in NW 14.8 mph 14.8 mph 66 % 0.0 in 439.0 W/m2 CLR
09:47 22.6 °F 15.7 °F 1013.4 in NW 11.1 mph 11.1 mph 65 % 0.0 in 452.0 W/m2 CLR
09:52 22.7 °F 15.6 °F 1013.4 in WSW 13.0 mph 13.0 mph 64 % 0.0 in 469.0 W/m2 CLR
09:57 22.8 °F 15.4 °F 1013.1 in WNW 14.8 mph 14.8 mph 63 % 0.0 in 483.0 W/m2 CLR
10:02 22.8 °F 15.4 °F 1013.1 in WNW 16.7 mph 16.7 mph 63 % 0.0 in 497.0 W/m2 CLR
10:07 23.1 °F 15.7 °F 1013.1 in WNW 14.8 mph 14.8 mph 63 % 0.0 in 515.0 W/m2 CLR
10:12 23.2 °F 15.7 °F 1013.1 in West 11.1 mph 11.1 mph 63 % 0.0 in 526.0 W/m2 CLR
10:17 23.0 °F 15.6 °F 1013.1 in NW 18.5 mph 18.5 mph 63 % 0.0 in 545.0 W/m2 CLR
10:23 23.1 °F 15.6 °F 1013.1 in NW 8.0 mph 8.0 mph 63 % 0.0 in 557.0 W/m2 CLR
10:28 23.2 °F 15.8 °F 1013.1 in NW 6.4 mph 6.4 mph 63 % 0.0 in 566.0 W/m2 CLR
10:33 23.7 °F 16.0 °F 1013.1 in WSW 7.4 mph 7.4 mph 62 % 0.0 in 587.0 W/m2 CLR
10:38 23.8 °F 15.8 °F 1013.1 in WNW 16.7 mph 16.7 mph 61 % 0.0 in 598.0 W/m2 CLR
10:43 23.9 °F 15.9 °F 1013.1 in WNW 13.0 mph   61 % 0.0 in 613.0 W/m2 CLR
10:48 24.1 °F 16.1 °F 1013.1 in West 14.8 mph 14.8 mph 61 % 0.0 in 626.0 W/m2 CLR
10:53 24.2 °F 15.9 °F 1013.1 in NW 14.8 mph 14.8 mph 60 % 0.0 in 638.0 W/m2 CLR
10:58 24.4 °F 16.2 °F 1013.1 in NW 16.7 mph 16.7 mph 60 % 0.0 in 700.0 W/m2 CLR
11:03 24.7 °F 16.1 °F 1012.8 in NW 14.8 mph 14.8 mph 59 % 0.0 in 202.0 W/m2 CLR
11:08 24.7 °F 16.1 °F 1012.8 in West 9.7 mph 9.7 mph 59 % 0.0 in 802.0 W/m2 CLR
11:13 24.6 °F 16.3 °F 1012.8 in NW 14.8 mph 14.8 mph 60 % 0.0 in 225.0 W/m2 CLR
11:18 24.4 °F 16.1 °F 1012.8 in West 14.8 mph 14.8 mph 60 % 0.0 in 186.0 W/m2 CLR
11:23 24.4 °F 16.4 °F 1012.8 in West 13.0 mph 13.0 mph 61 % 0.0 in 777.0 W/m2 CLR
11:28 24.7 °F 16.7 °F 1012.8 in West 13.0 mph 13.0 mph 61 % 0.0 in 773.0 W/m2 CLR
11:33 25.1 °F 16.6 °F 1012.8 in Calm     59 % 0.0 in 759.0 W/m2 CLR
11:38 25.6 °F 16.9 °F 1012.8 in WSW 8.0 mph 8.0 mph 59 % 0.0 in 642.0 W/m2 CLR
11:43 25.6 °F 16.7 °F 1012.4 in West 13.0 mph 13.0 mph 58 % 0.0 in 842.0 W/m2 CLR
11:48 25.8 °F 16.9 °F 1012.4 in NNW 11.1 mph 11.1 mph 58 % 0.0 in 817.0 W/m2 CLR
11:53 26.1 °F 16.9 °F 1012.8 in SSW 14.8 mph 14.8 mph 57 % 0.0 in 805.0 W/m2 CLR
11:58 26.5 °F 17.0 °F 1012.4 in West 18.5 mph 18.5 mph 56 % 0.0 in 763.0 W/m2 CLR
12:03 26.6 °F 16.8 °F 1012.4 in West 3.7 mph   55 % 0.0 in 800.0 W/m2 CLR
12:08 26.6 °F 16.8 °F 1012.4 in SW 11.1 mph 11.1 mph 55 % 0.0 in 807.0 W/m2 CLR
12:13 26.8 °F 16.7 °F 1012.4 in Calm     54 % 0.0 in 816.0 W/m2 CLR
12:18 26.9 °F 16.5 °F 1012.4 in West 9.3 mph 9.3 mph 53 % 0.0 in 816.0 W/m2 CLR
12:23 27.0 °F 16.9 °F 1012.4 in Calm     54 % 0.0 in 828.0 W/m2 CLR
12:28 27.4 °F 16.9 °F 1012.4 in Calm     53 % 0.0 in 837.0 W/m2 CLR
12:33 27.8 °F 17.1 °F 1012.4 in North 14.8 mph 14.8 mph 52 % 0.0 in 844.0 W/m2 CLR
12:38 27.8 °F 17.1 °F 1012.4 in NW 7.4 mph 7.4 mph 52 % 0.0 in 867.0 W/m2 CLR
12:43 27.9 °F 17.2 °F 1012.4 in West 7.4 mph 7.4 mph 52 % 0.0 in 900.0 W/m2 CLR
12:48 28.0 °F 16.9 °F 1012.4 in NW 11.1 mph 11.1 mph 51 % 0.0 in 898.0 W/m2 CLR
12:53 27.9 °F 16.8 °F 1012.4 in Calm     51 % 0.0 in 821.0 W/m2 CLR
12:58 27.9 °F 16.8 °F 1012.4 in Calm     51 % 0.0 in 388.0 W/m2 CLR
13:03 27.9 °F 16.9 °F 1012.1 in Calm     51 % 0.0 in 977.0 W/m2 CLR
13:08 28.1 °F 17.3 °F 1012.1 in Calm     52 % 0.0 in 988.0 W/m2 CLR
13:13 28.7 °F 17.6 °F 1012.1 in Calm     51 % 0.0 in 1030.0 W/m2 CLR
13:18 28.9 °F 17.1 °F 1012.1 in NNW 11.1 mph 11.1 mph 49 % 0.0 in 573.0 W/m2 CLR
13:23 28.5 °F 17.1 °F 1012.1 in Calm     50 % 0.0 in 956.0 W/m2 CLR
13:28 28.4 °F 16.9 °F 1012.1 in SSE 1.9 mph 1.9 mph 50 % 0.0 in 935.0 W/m2 CLR
13:33 28.5 °F 17.4 °F 1011.7 in North 4.8 mph 4.8 mph 51 % 0.0 in 937.0 W/m2 CLR
13:38 28.8 °F 17.1 °F 1011.7 in Calm     49 % 0.0 in 979.0 W/m2 CLR
13:43 28.7 °F 17.3 °F 1011.7 in ENE 11.1 mph 11.1 mph 50 % 0.0 in 209.0 W/m2 CLR
13:48 28.6 °F 17.1 °F 1011.7 in ENE 3.7 mph   50 % 0.0 in 937.0 W/m2 CLR
13:53 28.7 °F 17.3 °F 1011.7 in Calm   0.3 mph 50 % 0.0 in 953.0 W/m2 CLR
13:58 29.0 °F 17.2 °F 1011.7 in ENE 7.4 mph 7.4 mph 49 % 0.0 in 974.0 W/m2 CLR
14:03 29.3 °F 17.2 °F 1011.4 in NNE 9.3 mph   48 % 0.0 in 276.0 W/m2 CLR
14:08 29.3 °F 17.1 °F 1011.4 in East 11.1 mph 11.1 mph 48 % 0.0 in 960.0 W/m2 CLR
14:09 29.3 °F 17.1 °F 1011.4 in ESE 7.4 mph   48 % 0.0 in 960.0 W/m2 CLR
14:14 29.3 °F 17.2 °F 1011.4 in East 1.9 mph 1.9 mph 48 % 0.0 in 921.0 W/m2 CLR
14:19 29.4 °F 17.2 °F 1011.4 in Calm     48 % 0.0 in 926.0 W/m2 CLR
14:24 29.8 °F 17.3 °F 1011.4 in NE 5.6 mph 5.6 mph 47 % 0.0 in 976.0 W/m2 CLR
14:29 30.1 °F 17.2 °F 1011.1 in Calm     46 % 0.0 in 976.0 W/m2 CLR
14:34 30.3 °F 17.4 °F 1011.1 in Calm     46 % 0.0 in 916.0 W/m2 CLR
14:35 30.4 °F 17.1 °F 1011.1 in Calm     45 % 0.0 in 921.0 W/m2 CLR
14:40 30.4 °F 17.2 °F 1011.1 in Calm   1.9 mph 45 % 0.0 in 972.0 W/m2 CLR
14:45 30.4 °F 17.2 °F 1011.1 in NE 14.8 mph 14.8 mph 45 % 0.0 in 993.0 W/m2 CLR
14:50 30.4 °F 17.2 °F 1010.7 in Calm     45 % 0.0 in 1042.0 W/m2 CLR
14:56 30.4 °F 17.2 °F 1010.7 in ENE 1.9 mph   45 % 0.0 in 1039.0 W/m2 CLR
15:01 30.4 °F 16.8 °F 1010.7 in Calm     44 % 0.0 in 972.0 W/m2 CLR
15:06 30.5 °F 17.2 °F 1010.7 in Calm     45 % 0.0 in 928.0 W/m2 CLR
15:11 30.6 °F 17.3 °F 1010.4 in NNE 1.9 mph 3.9 mph 45 % 0.0 in 912.0 W/m2 CLR
15:16 30.9 °F 17.9 °F 1010.4 in ENE 13.0 mph 13.0 mph 46 % 0.0 in 889.0 W/m2 CLR
15:21 30.8 °F 17.5 °F 1010.4 in NNE 20.9 mph 20.9 mph 45 % 0.0 in 870.0 W/m2 CLR
15:26 30.7 °F 17.4 °F 1010.4 in NE 14.8 mph 14.8 mph 45 % 0.0 in 921.0 W/m2 CLR
15:31 30.8 °F 17.5 °F 1010.4 in ENE 8.0 mph 8.0 mph 45 % 0.0 in 879.0 W/m2 CLR
15:36 30.8 °F 17.5 °F 1010.4 in ENE 18.5 mph 18.5 mph 45 % 0.0 in 174.0 W/m2 CLR
15:41 30.6 °F 17.3 °F 1010.4 in North 20.4 mph 20.4 mph 45 % 0.0 in 837.0 W/m2 CLR
15:46 30.3 °F 17.4 °F 1010.4 in Calm     46 % 0.0 in 888.0 W/m2 CLR
15:51 30.3 °F 17.4 °F 1010.0 in ENE 11.3 mph 11.3 mph 46 % 0.0 in 854.0 W/m2 CLR
15:56 30.8 °F 17.5 °F 1010.0 in NNE 13.0 mph 13.0 mph 45 % 0.0 in 842.0 W/m2 CLR
16:01 31.2 °F 17.5 °F 1010.0 in NE 19.3 mph 19.3 mph 44 % 0.0 in 817.0 W/m2 CLR
16:06 31.2 °F 17.4 °F 1010.0 in ENE 7.4 mph 7.4 mph 44 % 0.0 in 819.0 W/m2 CLR
16:11 30.7 °F 17.0 °F 1010.0 in NNE 11.1 mph 11.1 mph 44 % 0.0 in 153.0 W/m2 CLR
16:16 30.8 °F 17.5 °F 1010.0 in East 11.1 mph 11.1 mph 45 % 0.0 in 793.0 W/m2 CLR
16:21 30.8 °F 17.5 °F 1009.7 in NNE 9.3 mph 9.3 mph 45 % 0.0 in 784.0 W/m2 CLR
16:26 30.9 °F 16.8 °F 1009.7 in ENE 7.4 mph 7.4 mph 43 % 0.0 in 775.0 W/m2 CLR
16:31 30.9 °F 16.9 °F 1010.0 in North 5.6 mph 5.6 mph 43 % 0.0 in 759.0 W/m2 CLR
16:36 31.3 °F 17.2 °F 1009.7 in North 11.1 mph 11.1 mph 43 % 0.0 in 763.0 W/m2 CLR
16:41 31.3 °F 16.9 °F 1009.7 in NNW 14.8 mph 14.8 mph 42 % 0.0 in 754.0 W/m2 CLR
16:46 31.5 °F 16.7 °F 1009.7 in North 11.1 mph 11.1 mph 41 % 0.0 in 749.0 W/m2 CLR
16:51 32.1 °F 17.2 °F 1009.7 in ENE 5.6 mph 5.6 mph 41 % 0.0 in 733.0 W/m2 CLR
16:56 32.1 °F 16.4 °F 1009.4 in Calm     39 % 0.0 in 717.0 W/m2 CLR
17:01 32.0 °F 16.3 °F 1009.4 in SW 3.7 mph 3.7 mph 39 % 0.0 in 712.0 W/m2 CLR
17:06 32.0 °F 15.9 °F 1009.4 in WSW 1.9 mph 1.9 mph 38 % 0.0 in 694.0 W/m2 CLR
17:11 32.3 °F 15.7 °F 1009.0 in West 1.9 mph   37 % 0.0 in 671.0 W/m2 CLR
17:16 32.3 °F 15.8 °F 1009.0 in SW 7.4 mph 7.4 mph 37 % 0.0 in 666.0 W/m2 CLR
17:21 32.5 °F 15.5 °F 1009.0 in WNW 3.7 mph 3.7 mph 36 % 0.0 in 656.0 W/m2 CLR
17:26 32.6 °F 15.6 °F 1009.0 in North 5.6 mph 5.6 mph 36 % 0.0 in 645.0 W/m2 CLR
17:31 32.5 °F 15.5 °F 1009.0 in NNE 5.6 mph 5.6 mph 36 % 0.0 in 633.0 W/m2 CLR
17:36 32.4 °F 15.8 °F 1009.0 in NE 8.0 mph 8.0 mph 37 % 0.0 in 621.0 W/m2 CLR
17:41 32.3 °F 15.8 °F 1008.7 in Calm     37 % 0.0 in 610.0 W/m2 CLR
17:46 32.4 °F 16.2 °F 1008.7 in East 16.7 mph 16.7 mph 38 % 0.0 in 598.0 W/m2 CLR
17:51 32.2 °F 16.1 °F 1008.7 in ENE 20.4 mph 20.4 mph 38 % 0.0 in 580.0 W/m2 CLR
17:56 32.2 °F 15.6 °F 1008.7 in NE 9.3 mph 9.3 mph 37 % 0.0 in 564.0 W/m2 CLR
18:01 32.3 °F 15.3 °F 1008.7 in NE 18.5 mph 18.5 mph 36 % 0.0 in 534.0 W/m2 CLR
18:06 32.3 °F 14.9 °F 1008.7 in ENE 14.8 mph 14.8 mph 35 % 0.0 in 545.0 W/m2 CLR
18:11 32.3 °F 14.4 °F 1008.7 in NNE 11.1 mph 11.1 mph 34 % 0.0 in 520.0 W/m2 CLR
18:16 32.4 °F 14.5 °F 1008.7 in North 5.6 mph 5.6 mph 34 % 0.0 in 519.0 W/m2 CLR
18:21 32.1 °F 17.2 °F 1008.7 in ESE 16.7 mph 16.7 mph 41 % 0.0 in 494.0 W/m2 CLR
18:26 31.4 °F 17.3 °F 1008.7 in East 8.0 mph 8.0 mph 43 % 0.0 in 496.0 W/m2 CLR
18:31 31.3 °F 17.6 °F 1008.7 in SE 18.5 mph 18.5 mph 44 % 0.0 in 457.0 W/m2 CLR
18:36 31.1 °F 17.4 °F 1008.7 in East 18.5 mph 18.5 mph 44 % 0.0 in 434.0 W/m2 CLR
18:41 30.9 °F 16.8 °F 1008.7 in ESE 13.0 mph 13.0 mph 43 % 0.0 in 415.0 W/m2 CLR
18:42 30.9 °F 16.8 °F 1008.7 in SE 13.0 mph 13.2 mph 43 % 0.0 in 415.0 W/m2 CLR
18:47 30.8 °F 16.8 °F 1008.4 in ESE 11.1 mph 11.1 mph 43 % 0.0 in 258.0 W/m2 CLR
18:52 30.8 °F 16.8 °F 1008.7 in ENE 5.6 mph   43 % 0.0 in 172.0 W/m2 CLR
18:57 30.9 °F 16.6 °F 1008.4 in ESE 1.9 mph   42 % 0.0 in 369.0 W/m2 CLR
19:02 31.1 °F 17.1 °F 1008.4 in Calm     43 % 0.0 in 373.0 W/m2 CLR
19:07 31.1 °F 17.1 °F 1008.4 in ESE 3.7 mph 5.0 mph 43 % 0.0 in 148.0 W/m2 CLR
19:12 30.9 °F 17.2 °F 1008.4 in SE 9.3 mph 9.3 mph 44 % 0.0 in 135.0 W/m2 CLR
19:17 30.6 °F 17.3 °F 1008.4 in SE 8.0 mph 8.0 mph 45 % 0.0 in 132.0 W/m2 CLR
19:22 30.4 °F 17.2 °F 1008.4 in SE 14.8 mph 14.8 mph 45 % 0.0 in 214.0 W/m2 CLR
19:27 30.3 °F 17.4 °F 1008.4 in SE 22.2 mph 22.2 mph 46 % 0.0 in 105.0 W/m2 CLR
19:32 30.2 °F 17.6 °F 1008.4 in SE 14.5 mph 14.5 mph 47 % 0.0 in 93.0 W/m2 CLR
19:37 29.9 °F 17.4 °F 1008.4 in SE 18.5 mph 18.5 mph 47 % 0.0 in 84.0 W/m2 CLR
19:42 29.8 °F 17.7 °F 1008.7 in ESE 18.5 mph 18.5 mph 48 % 0.0 in 88.0 W/m2 CLR
19:47 29.8 °F 17.9 °F 1008.4 in ESE 20.4 mph 20.4 mph 49 % 0.0 in 102.0 W/m2 CLR
19:52 29.6 °F 18.1 °F 1008.7 in ESE 14.8 mph 14.8 mph 50 % 0.0 in 104.0 W/m2 CLR
19:57 29.5 °F 18.0 °F 1008.7 in East 16.7 mph 16.7 mph 50 % 0.0 in 95.0 W/m2 CLR
20:02 29.3 °F 17.8 °F 1008.7 in East 18.5 mph 18.5 mph 50 % 0.0 in 90.0 W/m2 CLR
20:07 29.3 °F 17.8 °F 1008.7 in ESE 13.0 mph 13.0 mph 50 % 0.0 in 91.0 W/m2 CLR
20:12 29.3 °F 17.8 °F 1008.7 in ESE 11.1 mph 11.1 mph 50 % 0.0 in 84.0 W/m2 CLR
20:17 29.2 °F 18.1 °F 1008.7 in SE 7.4 mph 7.4 mph 51 % 0.0 in 83.0 W/m2 CLR
20:22 29.2 °F 18.1 °F 1008.7 in SE 14.8 mph 14.8 mph 51 % 0.0 in 88.0 W/m2 FEW
20:27 29.1 °F 18.3 °F 1008.7 in ESE 14.8 mph 14.8 mph 52 % 0.0 in 100.0 W/m2 CLR
20:32 29.1 °F 18.2 °F 1008.7 in SE 11.1 mph 11.1 mph 52 % 0.0 in 95.0 W/m2 CLR
20:37 29.0 °F 18.2 °F 1008.7 in ESE 18.5 mph 18.5 mph 52 % 0.0 in 86.0 W/m2 CLR
20:42 28.9 °F 18.1 °F 1008.7 in ESE 12.9 mph 12.9 mph 52 % 0.0 in 74.0 W/m2 FEW
20:47 28.8 °F 18.0 °F 1008.7 in ESE 14.8 mph 14.8 mph 52 % 0.0 in 69.0 W/m2 FEW
20:52 28.8 °F 17.9 °F 1008.7 in ESE 16.7 mph 16.7 mph 52 % 0.0 in 65.0 W/m2 FEW
20:57 28.7 °F 17.9 °F 1008.7 in SE 13.0 mph 13.0 mph 52 % 0.0 in 53.0 W/m2 SCT
21:02 28.7 °F 18.2 °F 1009.0 in ESE 9.3 mph 9.3 mph 53 % 0.0 in 40.0 W/m2 BKN
21:07 28.6 °F 17.8 °F 1009.0 in SE 13.0 mph 13.0 mph 52 % 0.0 in 32.0 W/m2 BKN
21:12 28.6 °F 17.8 °F 1009.0 in ESE 9.7 mph 9.7 mph 52 % 0.0 in 25.0 W/m2 BKN
21:17 28.6 °F 17.8 °F 1009.0 in SE 7.4 mph 7.4 mph 52 % 0.0 in 18.0 W/m2 BKN
21:22 28.6 °F 17.8 °F 1009.0 in SSE 7.4 mph 7.4 mph 52 % 0.0 in 9.0 W/m2 BKN
21:27 28.6 °F 18.1 °F 1009.4 in SSE 3.7 mph 3.7 mph 53 % 0.0 in 0.0 W/m2 OVC
21:32 28.5 °F 18.0 °F 1009.0 in SSE 13.0 mph 13.0 mph 53 % 0.0 in 7.0 W/m2 OVC
21:37 28.4 °F 17.9 °F 1009.0 in SSE 9.3 mph 9.3 mph 53 % 0.0 in 0.0 W/m2 OVC
21:42 28.3 °F 17.8 °F 1009.0 in Calm     53 % 0.0 in 0.0 W/m2 CLR
21:47 28.2 °F 18.0 °F 1009.4 in SSE 7.4 mph 7.4 mph 54 % 0.0 in 0.0 W/m2 CLR
21:52 28.1 °F 17.9 °F 1009.4 in SE 9.7 mph 9.7 mph 54 % 0.0 in 0.0 W/m2 CLR
21:57 27.9 °F 18.3 °F 1009.4 in Calm     56 % 0.0 in 0.0 W/m2 CLR
22:02 27.6 °F 18.3 °F 1009.4 in Calm     57 % 0.0 in 0.0 W/m2 CLR
22:07 27.4 °F 18.7 °F 1009.4 in Calm     59 % 0.0 in 0.0 W/m2 CLR
22:12 27.2 °F 18.7 °F 1009.7 in ESE 9.3 mph 9.3 mph 60 % 0.0 in 0.0 W/m2 CLR
22:17 26.8 °F 18.9 °F 1009.7 in SE 5.6 mph 5.6 mph 62 % 0.0 in 0.0 W/m2 CLR
22:22 26.6 °F 19.0 °F 1009.7 in ESE 11.1 mph 11.1 mph 63 % 0.0 in 0.0 W/m2 CLR
22:27 26.4 °F 18.8 °F 1009.7 in ESE 5.6 mph 5.6 mph 63 % 0.0 in 0.0 W/m2 CLR
22:32 26.3 °F 18.9 °F 1010.0 in ESE 3.7 mph 3.7 mph 64 % 0.0 in 0.0 W/m2 CLR
22:37 26.1 °F 19.0 °F 1010.0 in East 3.7 mph 3.7 mph 65 % 0.0 in 0.0 W/m2 CLR
22:42 25.9 °F 19.1 °F 1010.0 in SE 5.6 mph 5.6 mph 66 % 0.0 in 0.0 W/m2 CLR
22:47 25.8 °F 19.0 °F 1010.0 in SE 5.6 mph 5.6 mph 66 % 0.0 in 0.0 W/m2 CLR
22:52 25.7 °F 18.9 °F 1010.4 in ESE 9.3 mph 9.3 mph 66 % 0.0 in 0.0 W/m2 CLR
22:57 25.8 °F 18.4 °F 1010.4 in SE 9.3 mph 9.3 mph 64 % 0.0 in 0.0 W/m2 CLR
23:02 25.8 °F 18.5 °F 1010.0 in SE 7.4 mph 7.4 mph 64 % 0.0 in 0.0 W/m2 CLR
23:07 25.8 °F 18.5 °F 1010.4 in SSE 7.4 mph 7.4 mph 64 % 0.0 in 0.0 W/m2 CLR
23:12 25.8 °F 18.5 °F 1010.4 in South 8.0 mph 8.0 mph 64 % 0.0 in 0.0 W/m2 CLR
23:17 25.8 °F 18.8 °F 1010.4 in South 14.8 mph 14.8 mph 65 % 0.0 in 0.0 W/m2 CLR
23:22 25.7 °F 18.7 °F 1010.4 in South 9.3 mph 9.3 mph 65 % 0.0 in 0.0 W/m2 CLR
23:27 25.7 °F 18.6 °F 1010.4 in SSE 16.7 mph 16.7 mph 65 % 0.0 in 0.0 W/m2 CLR
23:32 25.6 °F 18.5 °F 1010.7 in SSE 18.5 mph 18.5 mph 65 % 0.0 in 0.0 W/m2 CLR
23:37 25.6 °F 18.7 °F 1010.7 in SSE 9.3 mph 9.3 mph 66 % 0.0 in 0.0 W/m2 CLR
23:42 25.5 °F 18.7 °F 1010.7 in SW 5.6 mph   66 % 0.0 in 0.0 W/m2 CLR
23:47 25.4 °F 17.9 °F 1010.7 in SW 11.1 mph 11.1 mph 63 % 0.0 in 0.0 W/m2 CLR
23:52 25.4 °F 16.5 °F 1010.7 in NW 14.8 mph 14.8 mph 58 % 0.0 in 0.0 W/m2 CLR
23:57 25.2 °F 15.6 °F 1010.7 in North 13.0 mph 13.0 mph 55 % 0.0 in 0.0 W/m2 CLR
Lo Temps de Massalio
Compliments of Weather Underground - 1.25 mb